createdAt,value
2023-05-10T00:04:27.959Z,8.70
2023-05-10T00:08:19.487Z,8.70
2023-05-10T00:12:08.557Z,8.60
2023-05-10T00:15:56.433Z,8.64
2023-05-10T00:19:55.259Z,8.62
2023-05-10T00:23:53.352Z,8.60
2023-05-10T00:27:41.501Z,8.60
2023-05-10T00:31:29.348Z,8.50
2023-05-10T00:35:20.537Z,8.50
2023-05-10T00:38:45.820Z,8.48
2023-05-10T00:42:36.846Z,8.40
2023-05-10T00:46:47.452Z,8.30
2023-05-10T00:50:45.304Z,8.20
2023-05-10T00:54:36.464Z,8.20
2023-05-10T00:59:03.458Z,8.24
2023-05-10T01:03:06.122Z,8.20
2023-05-10T01:07:14.490Z,8.20
2023-05-10T01:11:23.312Z,8.18
2023-05-10T01:15:22.323Z,8.20
2023-05-10T01:19:42.668Z,8.18
2023-05-10T01:23:24.524Z,8.10
2023-05-10T01:27:37.528Z,7.98
2023-05-10T01:31:43.325Z,7.90
2023-05-10T01:36:08.837Z,7.80
2023-05-10T01:39:33.359Z,7.70
2023-05-10T01:43:34.641Z,7.70
2023-05-10T01:47:35.588Z,7.60
2023-05-10T01:51:49.114Z,7.60
2023-05-10T01:55:38.175Z,7.60
2023-05-10T01:59:27.303Z,7.50
2023-05-10T02:03:18.995Z,7.50
2023-05-10T02:07:08.221Z,7.50
2023-05-10T02:10:42.625Z,7.36
2023-05-10T02:14:17.706Z,7.20
2023-05-10T02:18:06.875Z,7.20
2023-05-10T02:21:57.947Z,7.20
2023-05-10T02:25:26.690Z,7.18
2023-05-10T02:29:15.912Z,7.10
2023-05-10T02:33:06.148Z,7.16
2023-05-10T02:36:55.316Z,7.24
2023-05-10T02:40:44.538Z,7.20
2023-05-10T02:44:33.830Z,7.10
2023-05-10T02:48:26.833Z,7.10
2023-05-10T02:56:44.781Z,7.00
2023-05-10T03:00:35.920Z,6.98
2023-05-10T03:04:27.313Z,6.80
2023-05-10T03:08:16.571Z,6.70
2023-05-10T03:11:56.445Z,6.60
2023-05-10T03:16:18.810Z,6.60
2023-05-10T03:20:14.323Z,6.70
2023-05-10T03:24:16.619Z,6.70
2023-05-10T03:28:05.927Z,6.70
2023-05-10T03:32:01.669Z,6.80
2023-05-10T03:35:54.961Z,6.70
2023-05-10T03:40:08.461Z,6.70
2023-05-10T03:43:56.558Z,6.64
2023-05-10T03:47:45.790Z,6.60
2023-05-10T03:51:34.937Z,6.60
2023-05-10T03:55:16.808Z,6.60
2023-05-10T03:59:06.737Z,6.70
2023-05-10T04:02:57.013Z,6.60
2023-05-10T04:06:46.158Z,6.60
2023-05-10T04:10:34.066Z,6.60
2023-05-10T04:14:23.237Z,6.70
2023-05-10T04:18:15.513Z,6.80
2023-05-10T04:22:04.639Z,6.90
2023-05-10T04:25:53.581Z,7.10
2023-05-10T04:29:42.391Z,7.30
2023-05-10T04:33:31.608Z,7.30
2023-05-10T04:37:21.790Z,7.40
2023-05-10T04:41:13.856Z,7.40
2023-05-10T04:45:17.562Z,7.50
2023-05-10T04:49:08.163Z,7.68
2023-05-10T04:53:07.325Z,7.70
2023-05-10T04:56:56.224Z,7.90
2023-05-10T05:00:45.456Z,8.00
2023-05-10T05:04:37.545Z,8.16
2023-05-10T05:08:07.315Z,8.30
2023-05-10T05:11:56.615Z,8.40
2023-05-10T05:15:46.522Z,8.50
2023-05-10T05:19:40.053Z,8.70
2023-05-10T05:23:29.330Z,8.82
2023-05-10T05:27:42.071Z,9.00
2023-05-10T05:31:32.500Z,9.14
2023-05-10T05:35:16.239Z,9.28
2023-05-10T05:39:07.592Z,9.40
2023-05-10T05:42:58.054Z,9.50
2023-05-10T05:46:47.101Z,9.60
2023-05-10T05:50:36.302Z,9.70
2023-05-10T05:54:19.149Z,9.80
2023-05-10T05:58:08.548Z,9.90
2023-05-10T06:01:57.649Z,10.00
2023-05-10T06:05:46.956Z,10.10
2023-05-10T06:09:37.317Z,10.20
2023-05-10T06:13:27.551Z,10.30
2023-05-10T06:17:16.788Z,10.40
2023-05-10T06:21:07.295Z,10.40
2023-05-10T06:24:58.234Z,10.50
2023-05-10T06:28:27.985Z,10.60
2023-05-10T06:32:10.717Z,10.70
2023-05-10T06:36:00.523Z,10.80
2023-05-10T06:39:49.676Z,10.90
2023-05-10T06:43:38.036Z,11.00
2023-05-10T06:47:27.135Z,11.10
2023-05-10T06:51:16.335Z,11.20
2023-05-10T06:55:06.465Z,11.40
2023-05-10T06:58:55.556Z,11.40
2023-05-10T07:02:44.551Z,11.50
2023-05-10T07:06:33.276Z,11.58
2023-05-10T07:10:23.191Z,11.60
2023-05-10T07:14:14.432Z,11.70
2023-05-10T07:18:20.462Z,11.80
2023-05-10T07:22:16.257Z,11.90
2023-05-10T07:26:05.098Z,12.00
2023-05-10T07:29:54.160Z,12.00
2023-05-10T07:33:28.841Z,12.20
2023-05-10T07:37:18.269Z,12.32
2023-05-10T07:41:07.700Z,12.40
2023-05-10T07:44:55.489Z,12.60
2023-05-10T07:48:37.458Z,12.72
2023-05-10T07:52:26.471Z,12.90
2023-05-10T07:56:16.789Z,12.80
2023-05-10T07:59:58.729Z,12.90
2023-05-10T08:03:49.810Z,13.10
2023-05-10T08:07:16.980Z,13.20
2023-05-10T08:11:06.308Z,13.30
2023-05-10T08:14:58.149Z,13.50
2023-05-10T08:23:15.451Z,13.80
2023-05-10T08:27:05.115Z,13.80
2023-05-10T08:30:40.442Z,13.90
2023-05-10T08:34:31.183Z,14.00
2023-05-10T08:38:20.284Z,14.20
2023-05-10T08:42:03.382Z,14.40
2023-05-10T08:45:52.432Z,14.50
2023-05-10T08:49:42.710Z,14.70
2023-05-10T08:53:31.806Z,14.90
2023-05-10T08:57:21.031Z,14.90
2023-05-10T09:01:03.309Z,14.90
2023-05-10T09:04:52.692Z,14.96
2023-05-10T09:08:41.839Z,15.10
2023-05-10T09:12:30.202Z,15.20
2023-05-10T09:16:21.640Z,15.40
2023-05-10T09:20:10.302Z,15.60
2023-05-10T09:23:59.652Z,15.68
2023-05-10T09:27:45.751Z,15.70
2023-05-10T09:31:34.975Z,15.90
2023-05-10T09:35:29.353Z,16.00
2023-05-10T09:39:16.070Z,15.80
2023-05-10T09:43:05.400Z,15.58
2023-05-10T09:46:48.038Z,15.90
2023-05-10T09:50:37.458Z,15.80
2023-05-10T09:53:54.469Z,15.90
2023-05-10T09:57:15.929Z,16.22
2023-05-10T10:01:06.825Z,16.60
2023-05-10T10:04:43.692Z,16.18
2023-05-10T10:13:00.459Z,15.80
2023-05-10T10:15:57.011Z,16.50
2023-05-10T10:19:26.036Z,17.00
2023-05-10T10:22:50.643Z,17.40
2023-05-10T10:25:55.177Z,17.20
2023-05-10T10:29:33.252Z,17.20
2023-05-10T10:32:38.212Z,17.36
2023-05-10T10:35:35.658Z,17.50
2023-05-10T10:39:04.686Z,17.38
2023-05-10T10:42:53.876Z,17.20
2023-05-10T10:46:25.966Z,17.84
2023-05-10T10:49:22.534Z,18.10
2023-05-10T10:52:56.903Z,18.50
2023-05-10T10:56:35.217Z,18.60
2023-05-10T10:59:49.233Z,18.80
2023-05-10T11:02:44.210Z,18.70
2023-05-10T11:05:57.475Z,18.50
2023-05-10T11:08:43.025Z,18.60
2023-05-10T11:11:28.244Z,18.78
2023-05-10T11:13:56.645Z,19.16
2023-05-10T11:16:30.528Z,19.46
2023-05-10T11:19:03.726Z,19.40
2023-05-10T11:21:32.562Z,19.32
2023-05-10T11:24:18.657Z,19.08
2023-05-10T11:27:11.924Z,19.00
2023-05-10T11:29:40.569Z,18.88
2023-05-10T11:32:38.355Z,19.14
2023-05-10T11:35:17.884Z,19.46
2023-05-10T11:37:49.251Z,19.70
2023-05-10T11:40:18.133Z,19.50
2023-05-10T11:42:51.540Z,19.14
2023-05-10T11:45:25.399Z,18.80
2023-05-10T11:48:23.362Z,18.92
2023-05-10T11:51:10.157Z,19.18
2023-05-10T11:54:15.453Z,19.16
2023-05-10T11:56:46.636Z,19.54
2023-05-10T11:59:15.905Z,19.48
2023-05-10T12:01:43.996Z,18.96
2023-05-10T12:04:18.694Z,18.92
2023-05-10T12:07:04.232Z,19.30
2023-05-10T12:10:03.628Z,19.70
2023-05-10T12:12:46.755Z,19.94
2023-05-10T12:15:24.711Z,19.80
2023-05-10T12:17:53.120Z,19.92
2023-05-10T12:20:22.509Z,19.90
2023-05-10T12:23:13.911Z,20.12
2023-05-10T12:25:55.002Z,19.60
2023-05-10T12:28:23.513Z,19.16
2023-05-10T12:31:40.421Z,19.20
2023-05-10T12:34:49.307Z,19.10
2023-05-10T12:37:17.980Z,19.30
2023-05-10T12:40:20.807Z,19.60
2023-05-10T12:43:54.971Z,19.50
2023-05-10T12:46:45.455Z,19.20
2023-05-10T12:50:21.064Z,19.10
2023-05-10T12:53:44.320Z,19.00
2023-05-10T12:57:17.709Z,19.04
2023-05-10T13:00:28.308Z,18.76
2023-05-10T13:03:57.313Z,18.80
2023-05-10T13:06:59.817Z,19.20
2023-05-10T13:10:34.903Z,19.50
2023-05-10T13:13:46.093Z,19.78
2023-05-10T13:16:34.640Z,19.70
2023-05-10T13:19:03.035Z,20.10
2023-05-10T13:21:31.542Z,20.10
2023-05-10T13:23:59.912Z,20.30
2023-05-10T13:26:28.403Z,20.10
2023-05-10T13:28:56.826Z,20.10
2023-05-10T13:31:34.641Z,19.94
2023-05-10T13:34:46.958Z,19.44
2023-05-10T13:38:21.053Z,19.08
2023-05-10T13:41:52.047Z,18.60
2023-05-10T13:44:57.988Z,18.30
2023-05-10T13:48:09.508Z,17.92
2023-05-10T13:51:36.140Z,17.70
2023-05-10T13:55:15.668Z,17.60
2023-05-10T13:58:44.740Z,17.90
2023-05-10T14:02:26.630Z,17.94
2023-05-10T14:05:37.968Z,18.02
2023-05-10T14:09:01.013Z,18.00
2023-05-10T14:12:23.812Z,18.00
2023-05-10T14:15:39.825Z,18.30
2023-05-10T14:19:28.951Z,18.54
2023-05-10T14:22:48.174Z,18.90
2023-05-10T14:26:06.491Z,19.10
2023-05-10T14:28:45.372Z,19.30
2023-05-10T14:31:27.317Z,19.20
2023-05-10T14:34:01.330Z,19.10
2023-05-10T14:37:06.380Z,19.30
2023-05-10T14:40:31.717Z,19.20
2023-05-10T14:43:33.720Z,19.20
2023-05-10T14:46:26.380Z,19.12
2023-05-10T14:49:35.481Z,19.02
2023-05-10T14:52:39.211Z,18.90
2023-05-10T14:55:51.838Z,18.78
2023-05-10T14:58:56.593Z,18.20
2023-05-10T15:02:39.127Z,17.80
2023-05-10T15:06:02.810Z,17.60
2023-05-10T15:09:33.432Z,17.70
2023-05-10T15:12:57.071Z,17.80
2023-05-10T15:16:52.146Z,17.90
2023-05-10T15:20:27.208Z,17.70
2023-05-10T15:23:39.182Z,17.70
2023-05-10T15:27:14.030Z,17.70
2023-05-10T15:30:44.137Z,17.62
2023-05-10T15:34:11.071Z,17.60
2023-05-10T15:37:52.767Z,17.52
2023-05-10T15:41:27.110Z,17.46
2023-05-10T15:45:05.570Z,17.40
2023-05-10T15:48:40.584Z,17.20
2023-05-10T15:52:00.172Z,17.10
2023-05-10T15:55:16.798Z,17.08
2023-05-10T15:58:35.650Z,16.90
2023-05-10T16:02:07.786Z,16.88
2023-05-10T16:05:46.880Z,16.80
2023-05-10T16:09:36.184Z,16.70
2023-05-10T16:13:20.283Z,16.76
2023-05-10T16:16:51.627Z,16.70
2023-05-10T16:20:38.545Z,16.54
2023-05-10T16:24:11.707Z,16.40
2023-05-10T16:27:49.859Z,16.40
2023-05-10T16:31:32.063Z,16.30
2023-05-10T16:35:21.333Z,16.20
2023-05-10T16:39:10.564Z,16.10
2023-05-10T16:42:38.109Z,16.10
2023-05-10T16:46:29.729Z,16.00
2023-05-10T16:50:03.970Z,15.92
2023-05-10T16:53:53.103Z,15.80
2023-05-10T16:57:26.066Z,15.80
2023-05-10T17:01:15.737Z,15.62
2023-05-10T17:05:04.886Z,15.50
2023-05-10T17:08:52.688Z,15.40
2023-05-10T17:12:33.201Z,15.30
2023-05-10T17:15:55.719Z,15.20
2023-05-10T17:19:35.358Z,15.10
2023-05-10T17:23:17.311Z,15.00
2023-05-10T17:26:52.048Z,14.86
2023-05-10T17:30:39.885Z,14.78
2023-05-10T17:34:28.950Z,14.60
2023-05-10T17:37:58.301Z,14.50
2023-05-10T17:41:42.434Z,14.40
2023-05-10T17:45:23.984Z,14.20
2023-05-10T17:48:53.822Z,14.10
2023-05-10T17:52:43.076Z,14.00
2023-05-10T17:56:30.058Z,13.80
2023-05-10T18:00:17.174Z,13.60
2023-05-10T18:03:49.724Z,13.44
2023-05-10T18:07:38.746Z,13.30
2023-05-10T18:11:27.922Z,13.20
2023-05-10T18:15:00.982Z,13.10
2023-05-10T18:18:27.693Z,13.00
2023-05-10T18:22:10.877Z,12.90
2023-05-10T18:25:39.821Z,12.80
2023-05-10T18:29:15.742Z,12.70
2023-05-10T18:33:04.679Z,12.70
2023-05-10T18:36:46.290Z,12.50
2023-05-10T18:40:30.816Z,12.40
2023-05-10T18:44:19.810Z,12.38
2023-05-10T18:48:08.971Z,12.30
2023-05-10T18:51:50.550Z,12.20
2023-05-10T18:55:24.953Z,12.20
2023-05-10T18:59:13.673Z,12.20
2023-05-10T19:03:02.776Z,12.16
2023-05-10T19:06:51.920Z,12.00
2023-05-10T19:10:41.060Z,11.90
2023-05-10T19:14:29.060Z,11.82
2023-05-10T19:18:18.958Z,11.80
2023-05-10T19:22:10.157Z,11.80
2023-05-10T19:26:01.103Z,11.70
2023-05-10T19:29:33.056Z,11.70
2023-05-10T19:33:28.466Z,11.60
2023-05-10T19:37:16.592Z,11.60
2023-05-10T19:41:07.178Z,11.60
2023-05-10T19:44:42.070Z,11.50
2023-05-10T19:48:34.476Z,11.50
2023-05-10T19:52:23.657Z,11.50
2023-05-10T19:56:13.612Z,11.54
2023-05-10T19:59:45.754Z,11.60
2023-05-10T20:03:34.857Z,11.68
2023-05-10T20:07:16.610Z,11.70
2023-05-10T20:11:04.339Z,11.70
2023-05-10T20:14:53.355Z,11.70
2023-05-10T20:18:35.360Z,11.70
2023-05-10T20:22:24.719Z,11.50
2023-05-10T20:26:16.418Z,11.50
2023-05-10T20:30:05.687Z,11.50
2023-05-10T20:33:55.678Z,11.50
2023-05-10T20:37:45.996Z,11.50
2023-05-10T20:41:28.091Z,11.60
2023-05-10T20:45:10.152Z,11.60
2023-05-10T20:48:59.675Z,11.52
2023-05-10T20:52:49.899Z,11.60
2023-05-10T20:56:41.067Z,11.50
2023-05-10T21:00:37.369Z,11.58
2023-05-10T21:04:16.682Z,11.50
2023-05-10T21:21:02.850Z,11.80
2023-05-10T21:24:51.868Z,11.50
2023-05-10T21:28:41.165Z,11.30
2023-05-10T21:32:30.449Z,11.16
2023-05-10T21:40:08.711Z,10.80
2023-05-10T21:43:57.795Z,10.60
2023-05-10T21:47:49.133Z,10.40
2023-05-10T21:51:39.082Z,10.30
2023-05-10T21:55:29.443Z,10.20
2023-05-10T21:59:19.749Z,10.30
2023-05-10T22:03:09.745Z,10.40
2023-05-10T22:06:58.850Z,10.40
2023-05-10T22:10:48.159Z,10.44
2023-05-10T22:14:37.248Z,10.50
2023-05-10T22:18:26.459Z,10.50
2023-05-10T22:22:17.850Z,10.50
2023-05-10T22:26:07.191Z,10.40
2023-05-10T22:29:56.689Z,10.40
2023-05-10T22:33:46.644Z,10.34
2023-05-10T22:37:35.983Z,10.30
2023-05-10T22:42:12.016Z,10.30
2023-05-10T22:45:37.640Z,10.20
2023-05-10T22:49:29.031Z,10.10
2023-05-10T22:53:19.073Z,10.00
2023-05-10T22:57:08.309Z,9.98
2023-05-10T23:00:57.571Z,9.86
2023-05-10T23:04:55.965Z,9.70
2023-05-10T23:08:46.427Z,9.50
2023-05-10T23:12:35.766Z,9.32
2023-05-10T23:16:26.254Z,9.20
2023-05-10T23:20:16.432Z,8.94
2023-05-10T23:23:58.811Z,8.74
2023-05-10T23:27:37.079Z,8.60
2023-05-10T23:31:27.360Z,8.60
2023-05-10T23:35:16.873Z,8.70
2023-05-10T23:39:05.981Z,8.50
2023-05-10T23:42:56.104Z,8.50
2023-05-10T23:46:45.258Z,8.58
2023-05-10T23:50:35.886Z,8.50
2023-05-10T23:54:26.856Z,8.40
2023-05-10T23:58:16.080Z,8.30
